Hesperides — EBBW — position and weather

sailwx.info

Track history (hours):
 
Tides and Currents Weather Stations Pressure Air Temp Water Temp Dewpoint Dewpoint Depression Visibility Wind Speed Wind Dir Waves Ship Positions

Oceanographic research ship Hesperides (Spain)

Detailed information on ship capabilities available from University of Delaware's Ocean Information Center.

Last reported at 2017-May-21 05:45 UTC. Time now 2017-May-27 17:38 UTC.
Position N 36°01' W 005°12'.

Length 82 m; draft 5.5 m.

Type: Ship. MMSI: 224886000.

Date/timePositionNaut miles runAvg speedWind from/ knotsBaromVisibWave heightAir tempDewpointWater temp
2017-May-21 05:45N 36°01' W 005°12'2 9.6
2017-May-21 05:30N 35°60' W 005°15'6 9.9
2017-May-21 04:56N 35°58' W 005°22'511.2
2017-May-21 04:30N 35°57' W 005°27'60 6.8
2017-May-20 19:40N 35°38' W 006°38'2 7.1
2017-May-20 19:27N 35°37' W 006°39'4 6.8
2017-May-20 18:55N 35°35' W 006°42'5 9.2
2017-May-20 18:25N 35°31' W 006°46'4 9.1
2017-May-20 18:00N 35°29' W 006°49'5 9.2
2017-May-20 17:30N 35°25' W 006°53'5 9.3
2017-May-20 17:00N 35°22' W 006°57'5 9.5
2017-May-20 16:30N 35°19' W 007°02'4810.4
2017-May-20 11:51N 34°44' W 007°43'410.7
2017-May-20 11:26N 34°41' W 007°47'  
2017-May-17 23:12N 29°27' W 013°53'3 7.4
2017-May-17 22:50N 29°25' W 013°56'7810.4
2017-May-17 15:21N 28°29' W 014°58'411.6
2017-May-17 15:00N 28°26' W 015°01'611.6
2017-May-17 14:30N 28°22' W 015°06'1111.5
2017-May-17 13:31N 28°14' W 015°15'611.4
2017-May-17 13:00N 28°10' W 015°20'5 9.7
2017-May-17 12:30N 28°07' W 015°24'1 1.5
2017-May-17 12:00N 28°07' W 015°23'1 1.5
2017-May-17 11:30N 28°06' W 015°23'2 3.9
2017-May-17 11:01N 28°07' W 015°25'1 2.6
2017-May-17 10:30N 28°06' W 015°23'4 7.7
2017-May-17 10:00N 28°04' W 015°20'510.8
2017-May-17 09:30N 27°60' W 015°16'510.5
2017-May-17 09:00N 27°55' W 015°16'510.3
2017-May-17 08:30N 27°49' W 015°16'510.4
2017-May-17 08:00N 27°44' W 015°16'  
Track history (hours):
 
Tides and Currents Weather Stations Pressure Air Temp Water Temp Dewpoint Dewpoint Depression Visibility Wind Speed Wind Dir Waves Ship Positions

Oceanographic research ship Hesperides (Spain)

Detailed information on ship capabilities available from University of Delaware's Ocean Information Center.

Last reported at 2017-May-21 05:45 UTC. Time now 2017-May-27 17:38 UTC.
Position N 36°01' W 005°12'.

Length 82 m; draft 5.5 m.

Type: Ship. MMSI: 224886000.

Date/timePositionNaut miles runAvg speedWind from/ knotsBaromVisibWave heightAir tempDewpointWater temp
2017-May-21 05:45N 36°01' W 005°12'2 9.6
2017-May-21 05:30N 35°60' W 005°15'6 9.9
2017-May-21 04:56N 35°58' W 005°22'511.2
2017-May-21 04:30N 35°57' W 005°27'60 6.8
2017-May-20 19:40N 35°38' W 006°38'2 7.1
2017-May-20 19:27N 35°37' W 006°39'4 6.8
2017-May-20 18:55N 35°35' W 006°42'5 9.2
2017-May-20 18:25N 35°31' W 006°46'4 9.1
2017-May-20 18:00N 35°29' W 006°49'5 9.2
2017-May-20 17:30N 35°25' W 006°53'5 9.3
2017-May-20 17:00N 35°22' W 006°57'5 9.5
2017-May-20 16:30N 35°19' W 007°02'4810.4
2017-May-20 11:51N 34°44' W 007°43'410.7
2017-May-20 11:26N 34°41' W 007°47'  
2017-May-17 23:12N 29°27' W 013°53'3 7.4
2017-May-17 22:50N 29°25' W 013°56'7810.4
2017-May-17 15:21N 28°29' W 014°58'411.6
2017-May-17 15:00N 28°26' W 015°01'611.6
2017-May-17 14:30N 28°22' W 015°06'1111.5
2017-May-17 13:31N 28°14' W 015°15'611.4
2017-May-17 13:00N 28°10' W 015°20'5 9.7
2017-May-17 12:30N 28°07' W 015°24'1 1.5
2017-May-17 12:00N 28°07' W 015°23'1 1.5
2017-May-17 11:30N 28°06' W 015°23'2 3.9
2017-May-17 11:01N 28°07' W 015°25'1 2.6
2017-May-17 10:30N 28°06' W 015°23'4 7.7
2017-May-17 10:00N 28°04' W 015°20'510.8
2017-May-17 09:30N 27°60' W 015°16'510.5
2017-May-17 09:00N 27°55' W 015°16'510.3
2017-May-17 08:30N 27°49' W 015°16'510.4
2017-May-17 08:00N 27°44' W 015°16'  

Dump ship's entire track history